sensor_id;sensor_type;location;lat;lon;timestamp;pressure;altitude;pressure_sealevel;temperature;humidity
40285;BME280;25997;50.214;19.354;2023-10-19T00:00:42;97163.00;;;3.51;48.78
40285;BME280;25997;50.214;19.354;2023-10-19T00:03:47;97165.13;;;3.39;48.98
40285;BME280;25997;50.214;19.354;2023-10-19T00:06:52;97159.22;;;3.43;49.59
40285;BME280;25997;50.214;19.354;2023-10-19T00:09:56;97161.19;;;3.49;49.28
40285;BME280;25997;50.214;19.354;2023-10-19T00:12:58;97158.66;;;3.50;49.32
40285;BME280;25997;50.214;19.354;2023-10-19T00:16:01;97155.94;;;3.47;49.17
40285;BME280;25997;50.214;19.354;2023-10-19T00:19:12;97158.63;;;3.28;49.65
40285;BME280;25997;50.214;19.354;2023-10-19T00:22:21;97153.63;;;3.32;50.35
40285;BME280;25997;50.214;19.354;2023-10-19T00:25:25;97154.03;;;3.43;50.51
40285;BME280;25997;50.214;19.354;2023-10-19T00:28:27;97151.84;;;3.54;50.40
40285;BME280;25997;50.214;19.354;2023-10-19T00:31:30;97137.53;;;3.63;49.97
40285;BME280;25997;50.214;19.354;2023-10-19T00:34:38;97126.69;;;3.73;49.74
40285;BME280;25997;50.214;19.354;2023-10-19T00:37:42;97119.84;;;3.75;49.55
40285;BME280;25997;50.214;19.354;2023-10-19T00:40:50;97116.34;;;3.75;49.74
40285;BME280;25997;50.214;19.354;2023-10-19T00:43:54;97109.47;;;3.75;49.78
40285;BME280;25997;50.214;19.354;2023-10-19T00:47:03;97102.59;;;3.77;51.79
40285;BME280;25997;50.214;19.354;2023-10-19T00:50:13;97104.78;;;3.67;50.03
40285;BME280;25997;50.214;19.354;2023-10-19T00:53:19;97099.44;;;3.62;49.97
40285;BME280;25997;50.214;19.354;2023-10-19T00:56:24;97092.44;;;3.60;49.89
40285;BME280;25997;50.214;19.354;2023-10-19T00:59:28;97091.38;;;3.55;50.03
40285;BME280;25997;50.214;19.354;2023-10-19T01:02:36;97092.91;;;3.50;49.83
40285;BME280;25997;50.214;19.354;2023-10-19T01:05:44;97078.81;;;3.43;49.92
40285;BME280;25997;50.214;19.354;2023-10-19T01:08:53;97082.88;;;3.36;50.35
40285;BME280;25997;50.214;19.354;2023-10-19T01:11:56;97073.34;;;3.35;50.56
40285;BME280;25997;50.214;19.354;2023-10-19T01:15:07;97069.09;;;3.37;50.90
40285;BME280;25997;50.214;19.354;2023-10-19T01:18:10;97063.91;;;3.37;50.83
40285;BME280;25997;50.214;19.354;2023-10-19T01:21:15;97060.25;;;3.32;50.47
40285;BME280;25997;50.214;19.354;2023-10-19T01:24:23;97049.72;;;3.28;50.35
40285;BME280;25997;50.214;19.354;2023-10-19T01:27:40;97048.59;;;3.21;50.31
40285;BME280;25997;50.214;19.354;2023-10-19T01:30:43;97051.00;;;3.17;50.45
40285;BME280;25997;50.214;19.354;2023-10-19T01:33:46;97049.41;;;3.20;50.68
40285;BME280;25997;50.214;19.354;2023-10-19T01:36:49;97034.03;;;3.25;50.58
40285;BME280;25997;50.214;19.354;2023-10-19T01:39:53;97026.25;;;3.25;51.23
40285;BME280;25997;50.214;19.354;2023-10-19T01:42:56;97025.69;;;3.33;51.07
40285;BME280;25997;50.214;19.354;2023-10-19T01:46:01;97021.03;;;3.47;51.11
40285;BME280;25997;50.214;19.354;2023-10-19T01:49:06;97007.56;;;3.57;50.74
40285;BME280;25997;50.214;19.354;2023-10-19T01:52:09;97005.19;;;3.63;50.89
40285;BME280;25997;50.214;19.354;2023-10-19T01:55:13;97006.16;;;3.67;50.86
40285;BME280;25997;50.214;19.354;2023-10-19T01:58:21;97003.03;;;3.75;51.22
40285;BME280;25997;50.214;19.354;2023-10-19T02:01:26;97003.41;;;3.86;51.31
40285;BME280;25997;50.214;19.354;2023-10-19T02:04:32;96996.91;;;3.98;51.42
40285;BME280;25997;50.214;19.354;2023-10-19T02:07:36;96986.84;;;4.07;51.14
40285;BME280;25997;50.214;19.354;2023-10-19T02:10:40;96991.22;;;4.08;50.97
40285;BME280;25997;50.214;19.354;2023-10-19T02:13:43;96974.63;;;4.05;51.07
40285;BME280;25997;50.214;19.354;2023-10-19T02:16:48;96972.66;;;3.98;51.42
40285;BME280;25997;50.214;19.354;2023-10-19T02:19:53;96966.53;;;3.96;51.29
40285;BME280;25997;50.214;19.354;2023-10-19T02:22:56;96969.84;;;3.92;51.27
40285;BME280;25997;50.214;19.354;2023-10-19T02:26:00;96968.94;;;3.90;51.25
40285;BME280;25997;50.214;19.354;2023-10-19T02:29:04;96969.69;;;3.87;51.21
40285;BME280;25997;50.214;19.354;2023-10-19T02:32:08;96957.44;;;3.83;51.35
40285;BME280;25997;50.214;19.354;2023-10-19T02:35:10;96952.06;;;3.77;51.46
40285;BME280;25997;50.214;19.354;2023-10-19T02:38:13;96941.53;;;3.73;51.37
40285;BME280;25997;50.214;19.354;2023-10-19T02:41:17;96938.69;;;3.67;51.29
40285;BME280;25997;50.214;19.354;2023-10-19T02:44:21;96932.03;;;3.50;51.25
40285;BME280;25997;50.214;19.354;2023-10-19T02:47:24;96931.56;;;3.36;51.67
40285;BME280;25997;50.214;19.354;2023-10-19T02:50:25;96921.19;;;3.36;51.83
40285;BME280;25997;50.214;19.354;2023-10-19T02:53:28;96916.84;;;3.35;52.38
40285;BME280;25997;50.214;19.354;2023-10-19T02:56:32;96919.50;;;3.38;52.33
40285;BME280;25997;50.214;19.354;2023-10-19T02:59:36;96926.53;;;3.40;52.10
40285;BME280;25997;50.214;19.354;2023-10-19T03:02:40;96909.69;;;3.29;51.83
40285;BME280;25997;50.214;19.354;2023-10-19T03:05:43;96889.84;;;3.30;52.21
40285;BME280;25997;50.214;19.354;2023-10-19T03:08:45;96894.91;;;3.51;52.20
40285;BME280;25997;50.214;19.354;2023-10-19T03:11:48;96872.19;;;3.69;52.28
40285;BME280;25997;50.214;19.354;2023-10-19T03:14:53;96868.16;;;3.78;51.96
40285;BME280;25997;50.214;19.354;2023-10-19T03:17:56;96860.94;;;3.70;51.19
40285;BME280;25997;50.214;19.354;2023-10-19T03:20:57;96853.47;;;3.54;51.11
40285;BME280;25997;50.214;19.354;2023-10-19T03:24:00;96843.78;;;3.48;51.56
40285;BME280;25997;50.214;19.354;2023-10-19T03:27:15;96843.88;;;3.51;51.50
40285;BME280;25997;50.214;19.354;2023-10-19T03:30:18;96845.66;;;3.52;51.87
40285;BME280;25997;50.214;19.354;2023-10-19T03:33:21;96829.97;;;3.74;52.50
40285;BME280;25997;50.214;19.354;2023-10-19T03:36:28;96831.66;;;4.00;51.57
40285;BME280;25997;50.214;19.354;2023-10-19T03:39:33;96841.47;;;3.82;50.75
40285;BME280;25997;50.214;19.354;2023-10-19T03:42:40;96832.41;;;3.70;50.98
40285;BME280;25997;50.214;19.354;2023-10-19T03:45:43;96827.91;;;3.64;51.23
40285;BME280;25997;50.214;19.354;2023-10-19T03:48:51;96829.34;;;3.56;51.25
40285;BME280;25997;50.214;19.354;2023-10-19T03:51:57;96829.03;;;3.47;51.42
40285;BME280;25997;50.214;19.354;2023-10-19T03:55:14;96826.84;;;3.58;51.65
40285;BME280;25997;50.214;19.354;2023-10-19T03:58:21;96829.84;;;3.71;51.56
40285;BME280;25997;50.214;19.354;2023-10-19T04:01:24;96819.63;;;3.76;51.42
40285;BME280;25997;50.214;19.354;2023-10-19T04:04:26;96809.53;;;3.85;51.80
40285;BME280;25997;50.214;19.354;2023-10-19T04:07:30;96810.72;;;3.94;51.89
40285;BME280;25997;50.214;19.354;2023-10-19T04:10:33;96811.00;;;4.03;51.49
40285;BME280;25997;50.214;19.354;2023-10-19T04:13:47;96806.97;;;4.13;51.68
40285;BME280;25997;50.214;19.354;2023-10-19T04:16:53;96809.63;;;4.14;51.65
40285;BME280;25997;50.214;19.354;2023-10-19T04:19:57;96792.97;;;4.08;52.04
40285;BME280;25997;50.214;19.354;2023-10-19T04:22:59;96784.03;;;4.27;52.00
40285;BME280;25997;50.214;19.354;2023-10-19T04:26:07;96778.44;;;4.43;51.97
40285;BME280;25997;50.214;19.354;2023-10-19T04:29:14;96766.63;;;4.54;51.80
40285;BME280;25997;50.214;19.354;2023-10-19T04:32:18;96771.03;;;4.56;51.35
40285;BME280;25997;50.214;19.354;2023-10-19T04:35:26;96774.63;;;4.60;51.38
40285;BME280;25997;50.214;19.354;2023-10-19T04:38:33;96771.13;;;4.59;51.40
40285;BME280;25997;50.214;19.354;2023-10-19T04:41:36;96768.94;;;4.73;51.34
40285;BME280;25997;50.214;19.354;2023-10-19T04:44:40;96757.94;;;4.83;51.35
40285;BME280;25997;50.214;19.354;2023-10-19T04:47:42;96750.28;;;4.87;51.32
40285;BME280;25997;50.214;19.354;2023-10-19T04:50:44;96748.31;;;4.79;51.17
40285;BME280;25997;50.214;19.354;2023-10-19T04:53:47;96755.72;;;4.67;51.30
40285;BME280;25997;50.214;19.354;2023-10-19T04:56:49;96749.53;;;4.62;51.53
40285;BME280;25997;50.214;19.354;2023-10-19T04:59:55;96750.53;;;4.67;51.53
40285;BME280;25997;50.214;19.354;2023-10-19T05:02:57;96748.63;;;4.60;51.33
40285;BME280;25997;50.214;19.354;2023-10-19T05:06:00;96735.41;;;4.52;51.52
40285;BME280;25997;50.214;19.354;2023-10-19T05:09:03;96741.41;;;4.51;51.65
40285;BME280;25997;50.214;19.354;2023-10-19T05:12:07;96731.25;;;4.59;51.40
40285;BME280;25997;50.214;19.354;2023-10-19T05:15:12;96733.38;;;4.72;51.58
40285;BME280;25997;50.214;19.354;2023-10-19T05:18:14;96731.94;;;4.81;51.43
40285;BME280;25997;50.214;19.354;2023-10-19T05:21:16;96729.38;;;4.84;51.35
40285;BME280;25997;50.214;19.354;2023-10-19T05:24:19;96720.06;;;4.91;51.45
40285;BME280;25997;50.214;19.354;2023-10-19T05:27:21;96717.50;;;4.94;51.40
40285;BME280;25997;50.214;19.354;2023-10-19T05:30:26;96716.69;;;4.95;51.56
40285;BME280;25997;50.214;19.354;2023-10-19T05:33:28;96709.16;;;5.06;51.66
40285;BME280;25997;50.214;19.354;2023-10-19T05:36:31;96713.00;;;5.20;51.70
40285;BME280;25997;50.214;19.354;2023-10-19T05:39:33;96715.00;;;5.31;51.66
40285;BME280;25997;50.214;19.354;2023-10-19T05:42:37;96714.44;;;5.44;51.46
40285;BME280;25997;50.214;19.354;2023-10-19T05:45:41;96712.03;;;5.50;51.29
40285;BME280;25997;50.214;19.354;2023-10-19T05:48:43;96712.06;;;5.53;51.33
40285;BME280;25997;50.214;19.354;2023-10-19T05:51:46;96711.25;;;5.54;51.45
40285;BME280;25997;50.214;19.354;2023-10-19T05:54:49;96719.16;;;5.59;51.57
40285;BME280;25997;50.214;19.354;2023-10-19T05:57:51;96707.16;;;5.65;51.45
40285;BME280;25997;50.214;19.354;2023-10-19T06:00:59;96703.75;;;5.68;51.85
40285;BME280;25997;50.214;19.354;2023-10-19T06:04:02;96699.56;;;5.75;51.73
40285;BME280;25997;50.214;19.354;2023-10-19T06:07:04;96703.31;;;5.87;51.49
40285;BME280;25997;50.214;19.354;2023-10-19T06:10:07;96702.63;;;5.96;51.24
40285;BME280;25997;50.214;19.354;2023-10-19T06:13:10;96704.53;;;6.03;51.16
40285;BME280;25997;50.214;19.354;2023-10-19T06:16:14;96690.72;;;6.05;51.37
40285;BME280;25997;50.214;19.354;2023-10-19T06:19:17;96691.63;;;6.07;51.29
40285;BME280;25997;50.214;19.354;2023-10-19T06:22:19;96688.28;;;6.13;51.50
40285;BME280;25997;50.214;19.354;2023-10-19T06:25:23;96675.44;;;6.22;51.43
40285;BME280;25997;50.214;19.354;2023-10-19T06:28:26;96680.00;;;6.30;51.29
40285;BME280;25997;50.214;19.354;2023-10-19T06:31:30;96671.41;;;6.36;51.29
40285;BME280;25997;50.214;19.354;2023-10-19T06:34:32;96668.78;;;6.36;51.21
40285;BME280;25997;50.214;19.354;2023-10-19T06:37:35;96674.97;;;6.41;51.25
40285;BME280;25997;50.214;19.354;2023-10-19T06:40:37;96665.56;;;6.49;51.38
40285;BME280;25997;50.214;19.354;2023-10-19T06:43:40;96661.50;;;6.62;51.17
40285;BME280;25997;50.214;19.354;2023-10-19T06:46:44;96659.16;;;6.75;51.28
40285;BME280;25997;50.214;19.354;2023-10-19T06:49:47;96650.78;;;6.93;51.02
40285;BME280;25997;50.214;19.354;2023-10-19T06:52:49;96644.03;;;7.05;50.72
40285;BME280;25997;50.214;19.354;2023-10-19T06:55:52;96648.56;;;7.17;50.76
40285;BME280;25997;50.214;19.354;2023-10-19T06:58:56;96643.59;;;7.34;50.49
40285;BME280;25997;50.214;19.354;2023-10-19T07:02:00;96632.50;;;7.47;50.62
40285;BME280;25997;50.214;19.354;2023-10-19T07:05:03;96624.84;;;7.57;50.49
40285;BME280;25997;50.214;19.354;2023-10-19T07:08:06;96630.25;;;7.66;50.78
40285;BME280;25997;50.214;19.354;2023-10-19T07:11:09;96626.00;;;7.74;50.56
40285;BME280;25997;50.214;19.354;2023-10-19T07:14:12;96623.44;;;7.77;50.47
40285;BME280;25997;50.214;19.354;2023-10-19T07:17:16;96613.06;;;7.85;50.32
40285;BME280;25997;50.214;19.354;2023-10-19T07:20:19;96614.16;;;8.02;50.29
40285;BME280;25997;50.214;19.354;2023-10-19T07:23:28;96611.72;;;8.16;50.32
40285;BME280;25997;50.214;19.354;2023-10-19T07:26:30;96599.75;;;8.33;50.04
40285;BME280;25997;50.214;19.354;2023-10-19T07:29:34;96602.47;;;8.43;49.91
40285;BME280;25997;50.214;19.354;2023-10-19T07:32:39;96617.38;;;8.52;50.00
40285;BME280;25997;50.214;19.354;2023-10-19T07:35:41;96620.97;;;8.65;49.89
40285;BME280;25997;50.214;19.354;2023-10-19T07:38:44;96600.09;;;8.69;49.60
40285;BME280;25997;50.214;19.354;2023-10-19T07:41:48;96594.97;;;8.78;49.74
40285;BME280;25997;50.214;19.354;2023-10-19T07:44:51;96583.00;;;9.03;49.94
40285;BME280;25997;50.214;19.354;2023-10-19T07:47:55;96585.03;;;9.40;49.99
40285;BME280;25997;50.214;19.354;2023-10-19T07:50:57;96576.53;;;9.76;49.40
40285;BME280;25997;50.214;19.354;2023-10-19T07:54:00;96568.78;;;9.97;49.10
40285;BME280;25997;50.214;19.354;2023-10-19T07:57:03;96573.22;;;10.04;48.99
40285;BME280;25997;50.214;19.354;2023-10-19T08:00:07;96561.84;;;10.11;48.87
40285;BME280;25997;50.214;19.354;2023-10-19T08:03:12;96565.41;;;10.19;48.84
40285;BME280;25997;50.214;19.354;2023-10-19T08:06:17;96562.81;;;10.31;48.99
40285;BME280;25997;50.214;19.354;2023-10-19T08:09:19;96559.38;;;10.46;48.64
40285;BME280;25997;50.214;19.354;2023-10-19T08:12:24;96561.13;;;10.56;48.39
40285;BME280;25997;50.214;19.354;2023-10-19T08:15:27;96560.25;;;10.57;48.54
40285;BME280;25997;50.214;19.354;2023-10-19T08:18:32;96558.53;;;10.59;48.75
40285;BME280;25997;50.214;19.354;2023-10-19T08:21:36;96552.41;;;10.77;48.35
40285;BME280;25997;50.214;19.354;2023-10-19T08:24:38;96555.94;;;10.92;48.22
40285;BME280;25997;50.214;19.354;2023-10-19T08:27:48;96544.53;;;10.98;48.15
40285;BME280;25997;50.214;19.354;2023-10-19T08:30:58;96548.97;;;11.17;47.80
40285;BME280;25997;50.214;19.354;2023-10-19T08:34:04;96534.06;;;11.32;47.66
40285;BME280;25997;50.214;19.354;2023-10-19T08:37:06;96528.78;;;11.40;47.67
40285;BME280;25997;50.214;19.354;2023-10-19T08:40:11;96516.47;;;11.60;47.58
40285;BME280;25997;50.214;19.354;2023-10-19T08:43:16;96516.41;;;11.78;47.49
40285;BME280;25997;50.214;19.354;2023-10-19T08:46:19;96516.38;;;11.92;47.42
40285;BME280;25997;50.214;19.354;2023-10-19T08:49:23;96525.94;;;12.15;47.18
40285;BME280;25997;50.214;19.354;2023-10-19T08:52:27;96522.41;;;12.24;46.96
40285;BME280;25997;50.214;19.354;2023-10-19T08:55:30;96519.72;;;12.30;46.88
40285;BME280;25997;50.214;19.354;2023-10-19T08:58:35;96520.50;;;12.47;46.57
40285;BME280;25997;50.214;19.354;2023-10-19T09:01:38;96532.75;;;12.57;46.23
40285;BME280;25997;50.214;19.354;2023-10-19T09:04:47;96531.88;;;12.54;46.41
40285;BME280;25997;50.214;19.354;2023-10-19T09:07:50;96523.97;;;12.60;46.73
40285;BME280;25997;50.214;19.354;2023-10-19T09:10:55;96524.72;;;12.74;46.46
40285;BME280;25997;50.214;19.354;2023-10-19T09:13:58;96520.34;;;12.71;46.42
40285;BME280;25997;50.214;19.354;2023-10-19T09:17:00;96517.72;;;12.71;46.33
40285;BME280;25997;50.214;19.354;2023-10-19T09:20:07;96504.63;;;12.61;45.50
40285;BME280;25997;50.214;19.354;2023-10-19T09:23:10;96498.59;;;12.44;44.85
40285;BME280;25997;50.214;19.354;2023-10-19T09:26:15;96507.41;;;12.37;44.85
40285;BME280;25997;50.214;19.354;2023-10-19T09:29:18;96496.81;;;12.47;45.07
40285;BME280;25997;50.214;19.354;2023-10-19T09:32:21;96490.69;;;12.48;44.40
40285;BME280;25997;50.214;19.354;2023-10-19T09:35:26;96490.66;;;12.53;44.40
40285;BME280;25997;50.214;19.354;2023-10-19T09:38:32;96482.59;;;12.72;44.44
40285;BME280;25997;50.214;19.354;2023-10-19T09:41:35;96479.88;;;12.86;44.05
40285;BME280;25997;50.214;19.354;2023-10-19T09:44:40;96467.47;;;12.96;43.83
40285;BME280;25997;50.214;19.354;2023-10-19T09:47:49;96466.63;;;12.89;43.60
40285;BME280;25997;50.214;19.354;2023-10-19T09:50:54;96465.09;;;12.65;43.63
40285;BME280;25997;50.214;19.354;2023-10-19T09:54:00;96462.72;;;12.29;43.85
40285;BME280;25997;50.214;19.354;2023-10-19T09:57:12;96469.84;;;12.06;44.17
40285;BME280;25997;50.214;19.354;2023-10-19T10:00:17;96468.19;;;11.85;44.16
40285;BME280;25997;50.214;19.354;2023-10-19T10:03:47;96467.34;;;11.79;43.77
40285;BME280;25997;50.214;19.354;2023-10-19T10:07:01;96469.97;;;11.71;44.41
40285;BME280;25997;50.214;19.354;2023-10-19T10:10:08;96471.72;;;11.74;44.72
40285;BME280;25997;50.214;19.354;2023-10-19T10:13:38;96455.13;;;11.69;44.97
40285;BME280;25997;50.214;19.354;2023-10-19T10:16:43;96464.75;;;11.65;45.11
40285;BME280;25997;50.214;19.354;2023-10-19T10:19:47;96454.22;;;11.70;45.29
40285;BME280;25997;50.214;19.354;2023-10-19T10:23:16;96455.13;;;11.63;45.51
40285;BME280;25997;50.214;19.354;2023-10-19T10:26:20;96448.13;;;11.59;45.79
40285;BME280;25997;50.214;19.354;2023-10-19T10:29:25;96433.28;;;11.53;45.79
40285;BME280;25997;50.214;19.354;2023-10-19T10:32:45;96427.09;;;11.62;46.67
40285;BME280;25997;50.214;19.354;2023-10-19T10:35:55;96437.59;;;11.71;46.48
40285;BME280;25997;50.214;19.354;2023-10-19T10:39:02;96416.50;;;11.81;46.67
40285;BME280;25997;50.214;19.354;2023-10-19T10:42:08;96412.00;;;12.01;46.78
40285;BME280;25997;50.214;19.354;2023-10-19T10:45:19;96411.94;;;12.04;46.61
40285;BME280;25997;50.214;19.354;2023-10-19T10:48:22;96405.84;;;11.98;46.75
40285;BME280;25997;50.214;19.354;2023-10-19T10:51:26;96394.47;;;11.99;47.17
40285;BME280;25997;50.214;19.354;2023-10-19T10:54:32;96389.19;;;12.03;47.32
40285;BME280;25997;50.214;19.354;2023-10-19T10:57:36;96374.25;;;12.08;47.80
40285;BME280;25997;50.214;19.354;2023-10-19T11:00:42;96373.38;;;12.12;47.96
40285;BME280;25997;50.214;19.354;2023-10-19T11:03:46;96360.19;;;12.14;47.68
40285;BME280;25997;50.214;19.354;2023-10-19T11:06:50;96358.47;;;12.05;47.99
40285;BME280;25997;50.214;19.354;2023-10-19T11:09:55;96346.22;;;12.03;48.08
40285;BME280;25997;50.214;19.354;2023-10-19T11:13:00;96343.63;;;11.97;48.84
40285;BME280;25997;50.214;19.354;2023-10-19T11:16:04;96342.72;;;12.01;48.94
40285;BME280;25997;50.214;19.354;2023-10-19T11:19:07;96341.75;;;12.15;48.95
40285;BME280;25997;50.214;19.354;2023-10-19T11:22:10;96333.84;;;12.22;49.09
40285;BME280;25997;50.214;19.354;2023-10-19T11:25:21;96334.63;;;12.31;49.45
40285;BME280;25997;50.214;19.354;2023-10-19T11:28:24;96328.41;;;12.41;49.28
40285;BME280;25997;50.214;19.354;2023-10-19T11:31:29;96316.97;;;12.44;49.53
40285;BME280;25997;50.214;19.354;2023-10-19T11:34:38;96312.59;;;12.44;49.66
40285;BME280;25997;50.214;19.354;2023-10-19T11:37:48;96306.50;;;12.38;49.97
40285;BME280;25997;50.214;19.354;2023-10-19T11:40:52;96301.19;;;12.42;51.60
40285;BME280;25997;50.214;19.354;2023-10-19T11:43:54;96312.69;;;12.32;50.04
40285;BME280;25997;50.214;19.354;2023-10-19T11:46:56;96305.63;;;12.36;50.25
40285;BME280;25997;50.214;19.354;2023-10-19T11:49:59;96295.13;;;12.34;50.39
40285;BME280;25997;50.214;19.354;2023-10-19T11:53:01;96301.28;;;12.33;50.76
40285;BME280;25997;50.214;19.354;2023-10-19T11:56:07;96299.53;;;12.32;51.09
40285;BME280;25997;50.214;19.354;2023-10-19T11:59:10;96305.69;;;12.30;50.99
40285;BME280;25997;50.214;19.354;2023-10-19T12:02:13;96300.44;;;12.30;51.04
40285;BME280;25997;50.214;19.354;2023-10-19T12:05:19;96297.81;;;12.27;50.96
40285;BME280;25997;50.214;19.354;2023-10-19T12:08:22;96311.75;;;12.39;51.54
40285;BME280;25997;50.214;19.354;2023-10-19T12:11:26;96298.41;;;12.59;51.59
40285;BME280;25997;50.214;19.354;2023-10-19T12:14:29;96300.97;;;12.65;51.34
40285;BME280;25997;50.214;19.354;2023-10-19T12:17:31;96300.97;;;12.63;51.47
40285;BME280;25997;50.214;19.354;2023-10-19T12:20:34;96304.50;;;12.62;51.66
40285;BME280;25997;50.214;19.354;2023-10-19T12:23:36;96294.88;;;12.58;51.74
40285;BME280;25997;50.214;19.354;2023-10-19T12:26:40;96292.19;;;12.66;52.00
40285;BME280;25997;50.214;19.354;2023-10-19T12:29:43;96284.22;;;12.69;52.22
40285;BME280;25997;50.214;19.354;2023-10-19T12:32:45;96284.25;;;12.70;52.18
40285;BME280;25997;50.214;19.354;2023-10-19T12:35:50;96285.97;;;12.73;52.11
40285;BME280;25997;50.214;19.354;2023-10-19T12:38:55;96273.66;;;12.75;52.22
40285;BME280;25997;50.214;19.354;2023-10-19T12:41:59;96277.06;;;12.83;52.37
40285;BME280;25997;50.214;19.354;2023-10-19T12:45:03;96269.19;;;12.80;52.49
40285;BME280;25997;50.214;19.354;2023-10-19T12:48:06;96268.34;;;12.78;52.65
40285;BME280;25997;50.214;19.354;2023-10-19T12:51:11;96266.66;;;12.72;52.78
40285;BME280;25997;50.214;19.354;2023-10-19T12:54:14;96268.38;;;12.75;53.15
40285;BME280;25997;50.214;19.354;2023-10-19T12:57:19;96269.19;;;12.80;53.13
40285;BME280;25997;50.214;19.354;2023-10-19T13:00:21;96260.50;;;12.75;53.25
40285;BME280;25997;50.214;19.354;2023-10-19T13:03:30;96253.53;;;12.68;53.14
40285;BME280;25997;50.214;19.354;2023-10-19T13:06:33;96252.72;;;12.61;53.57
40285;BME280;25997;50.214;19.354;2023-10-19T13:09:36;96254.50;;;12.61;53.83
40285;BME280;25997;50.214;19.354;2023-10-19T13:12:40;96250.06;;;12.63;54.09
40285;BME280;25997;50.214;19.354;2023-10-19T13:15:45;96231.63;;;12.66;54.02
40285;BME280;25997;50.214;19.354;2023-10-19T13:18:49;96232.47;;;12.68;54.13
40285;BME280;25997;50.214;19.354;2023-10-19T13:21:52;96230.66;;;12.71;54.39
40285;BME280;25997;50.214;19.354;2023-10-19T13:24:55;96221.84;;;12.77;54.56
40285;BME280;25997;50.214;19.354;2023-10-19T13:27:59;96222.59;;;12.85;54.75
40285;BME280;25997;50.214;19.354;2023-10-19T13:31:01;96209.28;;;12.96;54.37
40285;BME280;25997;50.214;19.354;2023-10-19T13:34:04;96205.75;;;12.98;54.66
40285;BME280;25997;50.214;19.354;2023-10-19T13:37:11;96214.41;;;13.09;54.68
40285;BME280;25997;50.214;19.354;2023-10-19T13:40:13;96210.06;;;13.08;54.50
40285;BME280;25997;50.214;19.354;2023-10-19T13:43:18;96210.97;;;13.04;54.86
40285;BME280;25997;50.214;19.354;2023-10-19T13:46:21;96202.19;;;13.04;54.74
40285;BME280;25997;50.214;19.354;2023-10-19T13:49:24;96204.03;;;12.97;55.10
40285;BME280;25997;50.214;19.354;2023-10-19T13:52:27;96192.59;;;12.97;55.27
40285;BME280;25997;50.214;19.354;2023-10-19T13:55:29;96185.63;;;12.93;55.43
40285;BME280;25997;50.214;19.354;2023-10-19T13:58:33;96179.53;;;12.90;55.75
40285;BME280;25997;50.214;19.354;2023-10-19T14:01:36;96189.31;;;12.79;55.58
40285;BME280;25997;50.214;19.354;2023-10-19T14:04:38;96178.94;;;12.67;55.62
40285;BME280;25997;50.214;19.354;2023-10-19T14:07:41;96166.78;;;12.57;55.59
40285;BME280;25997;50.214;19.354;2023-10-19T14:10:44;96169.50;;;12.50;55.84
40285;BME280;25997;50.214;19.354;2023-10-19T14:13:49;96165.13;;;12.50;55.83
40285;BME280;25997;50.214;19.354;2023-10-19T14:16:53;96159.88;;;12.47;55.88
40285;BME280;25997;50.214;19.354;2023-10-19T14:19:55;96151.09;;;12.47;55.88
40285;BME280;25997;50.214;19.354;2023-10-19T14:22:59;96152.03;;;12.43;55.91
40285;BME280;25997;50.214;19.354;2023-10-19T14:26:02;96143.31;;;12.39;56.03
40285;BME280;25997;50.214;19.354;2023-10-19T14:29:06;96123.19;;;12.35;56.34
40285;BME280;25997;50.214;19.354;2023-10-19T14:32:08;96118.81;;;12.31;56.33
40285;BME280;25997;50.214;19.354;2023-10-19T14:35:11;96113.66;;;12.24;56.47
40285;BME280;25997;50.214;19.354;2023-10-19T14:38:15;96114.59;;;12.20;56.55
40285;BME280;25997;50.214;19.354;2023-10-19T14:41:18;96113.69;;;12.22;56.59
40285;BME280;25997;50.214;19.354;2023-10-19T14:44:22;96127.66;;;12.29;56.57
40285;BME280;25997;50.214;19.354;2023-10-19T14:47:25;96137.25;;;12.33;56.68
40285;BME280;25997;50.214;19.354;2023-10-19T14:50:27;96139.72;;;12.46;56.47
40285;BME280;25997;50.214;19.354;2023-10-19T14:53:29;96140.50;;;12.54;56.21
40285;BME280;25997;50.214;19.354;2023-10-19T14:56:32;96140.41;;;12.62;56.32
40285;BME280;25997;50.214;19.354;2023-10-19T14:59:36;96134.13;;;12.69;56.17
40285;BME280;25997;50.214;19.354;2023-10-19T15:02:38;96133.22;;;12.71;56.21
40285;BME280;25997;50.214;19.354;2023-10-19T15:05:41;96142.84;;;12.75;56.33
40285;BME280;25997;50.214;19.354;2023-10-19T15:08:44;96144.59;;;12.76;56.31
40285;BME280;25997;50.214;19.354;2023-10-19T15:11:47;96142.81;;;12.77;56.43
40285;BME280;25997;50.214;19.354;2023-10-19T15:14:51;96135.84;;;12.74;56.35
40285;BME280;25997;50.214;19.354;2023-10-19T15:17:54;96134.09;;;12.75;56.34
40285;BME280;25997;50.214;19.354;2023-10-19T15:21:05;96125.38;;;12.70;56.25
40285;BME280;25997;50.214;19.354;2023-10-19T15:24:09;96121.06;;;12.64;56.36
40285;BME280;25997;50.214;19.354;2023-10-19T15:27:13;96134.28;;;12.60;56.34
40285;BME280;25997;50.214;19.354;2023-10-19T15:30:18;96118.53;;;12.54;56.32
40285;BME280;25997;50.214;19.354;2023-10-19T15:33:21;96121.34;;;12.40;56.35
40285;BME280;25997;50.214;19.354;2023-10-19T15:36:23;96129.34;;;12.31;56.45
40285;BME280;25997;50.214;19.354;2023-10-19T15:39:27;96123.28;;;12.26;56.55
40285;BME280;25997;50.214;19.354;2023-10-19T15:42:30;96124.19;;;12.24;56.41
40285;BME280;25997;50.214;19.354;2023-10-19T15:45:36;96134.84;;;12.11;56.65
40285;BME280;25997;50.214;19.354;2023-10-19T15:48:40;96132.31;;;11.98;56.78
40285;BME280;25997;50.214;19.354;2023-10-19T15:51:42;96133.28;;;11.92;56.81
40285;BME280;25997;50.214;19.354;2023-10-19T15:54:46;96122.78;;;11.88;56.84
40285;BME280;25997;50.214;19.354;2023-10-19T15:57:49;96127.25;;;11.78;56.99
40285;BME280;25997;50.214;19.354;2023-10-19T16:00:53;96129.09;;;11.70;56.99
40285;BME280;25997;50.214;19.354;2023-10-19T16:03:56;96132.63;;;11.68;57.09
40285;BME280;25997;50.214;19.354;2023-10-19T16:06:58;96130.03;;;11.66;57.05
40285;BME280;25997;50.214;19.354;2023-10-19T16:10:01;96127.41;;;11.63;57.07